Time;durP1;ratioP1;P1;durP2;ratioP2;P2;SDS_P1;SDS_P2;PMS_P1;PMS_P2;Temp;Humidity;BMP_temperature;BMP_pressure;BME280_temperature;BME280_humidity;BME280_pressure;Samples;Min_cycle;Max_cycle;Signal;HPM_P1;HPM_P2
2022/06/22 00:02:12;;;;;;;9.95;6.80;;;19.10;99.90;;;;;;4992255;28;20113;-59
2022/06/22 00:04:48;;;;;;;11.32;7.35;;;19.00;99.90;;;;;;4979705;28;20074;-58
2022/06/22 00:07:23;;;;;;;11.02;7.82;;;19.00;99.90;;;;;;4983406;28;20035;-58
2022/06/22 00:10:01;;;;;;;11.63;7.43;;;18.90;99.90;;;;;;4983317;28;20049;-59
2022/06/22 00:12:31;;;;;;;12.02;7.75;;;19.00;99.90;;;;;;4983286;28;20046;-58
2022/06/22 00:14:59;;;;;;;9.30;7.68;;;18.90;99.90;;;;;;4982809;28;20026;-60
2022/06/22 00:17:35;;;;;;;12.60;8.30;;;18.80;99.90;;;;;;4978542;28;20030;-59
2022/06/22 00:20:15;;;;;;;13.18;9.27;;;18.80;99.90;;;;;;4991307;28;20034;-59
2022/06/22 00:22:51;;;;;;;12.48;8.52;;;18.70;99.90;;;;;;4979607;28;20023;-58
2022/06/22 00:25:37;;;;;;;15.40;9.48;;;18.70;99.90;;;;;;4983037;28;20034;-59
2022/06/22 00:28:31;;;;;;;10.52;8.30;;;18.90;99.90;;;;;;4983054;28;20496;-59
2022/06/22 00:31:13;;;;;;;11.03;8.53;;;19.00;99.90;;;;;;4982699;28;20579;-59
2022/06/22 00:33:59;;;;;;;12.02;8.40;;;18.80;99.90;;;;;;4983055;28;20030;-59
2022/06/22 00:36:28;;;;;;;12.02;8.20;;;19.10;99.90;;;;;;4981804;28;20041;-59
2022/06/22 00:38:54;;;;;;;10.57;8.40;;;19.20;99.90;;;;;;4990503;28;20050;-58
2022/06/22 00:41:24;;;;;;;12.32;8.27;;;19.30;99.90;;;;;;4993258;28;20411;-59
2022/06/22 00:43:52;;;;;;;11.43;7.90;;;19.20;99.90;;;;;;4990032;28;20030;-58
2022/06/22 00:46:21;;;;;;;13.38;8.52;;;19.20;99.90;;;;;;4989079;28;20026;-59
2022/06/22 00:48:51;;;;;;;11.63;8.18;;;19.40;99.90;;;;;;4988807;28;20026;-59
2022/06/22 00:51:34;;;;;;;12.98;8.38;;;19.50;99.90;;;;;;4989330;28;20035;-60
2022/06/22 00:54:05;;;;;;;11.57;7.53;;;19.30;99.90;;;;;;4989726;28;20061;-59
2022/06/22 00:56:37;;;;;;;10.60;7.63;;;19.40;99.90;;;;;;4977986;28;20062;-59
2022/06/22 00:59:06;;;;;;;10.85;6.93;;;19.50;99.90;;;;;;4990655;28;20022;-59
2022/06/22 01:01:36;;;;;;;10.60;6.78;;;19.50;99.90;;;;;;4988498;28;20084;-59
2022/06/22 01:04:10;;;;;;;12.27;7.30;;;19.50;99.90;;;;;;4988982;28;20038;-58
2022/06/22 01:06:43;;;;;;;10.25;6.75;;;19.40;99.90;;;;;;4988881;28;20019;-58
2022/06/22 01:09:28;;;;;;;13.25;6.43;;;19.30;99.90;;;;;;4988861;28;20042;-59
2022/06/22 01:12:16;;;;;;;11.05;6.40;;;19.50;99.90;;;;;;4993923;28;20113;-58
2022/06/22 01:14:44;;;;;;;9.45;5.97;;;19.60;99.90;;;;;;4977687;28;20026;-59
2022/06/22 01:17:24;;;;;;;11.20;6.47;;;19.80;99.90;;;;;;4990788;28;20045;-59
2022/06/22 01:20:09;;;;;;;15.50;6.15;;;19.70;99.90;;;;;;4978822;28;20015;-58
2022/06/22 01:22:45;;;;;;;11.02;5.90;;;19.50;99.90;;;;;;4988721;28;20561;-59
2022/06/22 01:25:38;;;;;;;9.63;5.93;;;19.40;99.90;;;;;;4988383;28;20133;-59
2022/06/22 01:28:05;;;;;;;11.70;5.70;;;19.60;99.90;;;;;;4980662;28;20097;-59
2022/06/22 01:30:31;;;;;;;10.93;6.03;;;19.50;99.90;;;;;;4988044;28;20105;-59
2022/06/22 01:32:57;;;;;;;9.10;5.53;;;19.30;99.90;;;;;;4989539;28;20019;-58
2022/06/22 01:35:27;;;;;;;7.80;5.18;;;19.30;99.90;;;;;;4992433;28;20026;-59
2022/06/22 01:37:53;;;;;;;7.13;4.45;;;19.30;99.90;;;;;;4988722;28;20080;-58
2022/06/22 01:40:25;;;;;;;9.20;4.78;;;19.30;99.90;;;;;;4988496;28;20391;-59
2022/06/22 01:43:13;;;;;;;8.43;4.72;;;19.20;99.90;;;;;;4988238;28;20525;-60
2022/06/22 01:45:47;;;;;;;7.55;3.83;;;19.30;99.90;;;;;;4987723;28;20026;-59
2022/06/22 01:48:24;;;;;;;6.80;3.28;;;19.10;99.90;;;;;;4988279;28;20077;-59
2022/06/22 01:51:00;;;;;;;7.18;3.72;;;19.20;99.90;;;;;;4991427;28;20467;-59
2022/06/22 01:53:33;;;;;;;6.75;3.42;;;19.40;99.90;;;;;;4976880;28;20057;-59
2022/06/22 01:56:02;;;;;;;;;;;19.30;99.90;;;;;;4989348;28;20073;-60
2022/06/22 01:58:42;;;;;;;6.85;3.40;;;19.30;99.90;;;;;;4981345;28;19945;-60
2022/06/22 02:01:35;;;;;;;7.20;3.65;;;19.30;99.90;;;;;;4981057;28;20293;-59
2022/06/22 02:04:13;;;;;;;6.60;3.75;;;19.50;99.90;;;;;;4981367;28;20026;-59
2022/06/22 02:09:57;;;;;;;5.70;3.20;;;19.30;99.90;;;;;;4981745;28;20050;-59
2022/06/22 02:12:28;;;;;;;4.32;3.28;;;19.40;99.90;;;;;;4981130;28;20097;-58
2022/06/22 02:15:05;;;;;;;5.60;3.22;;;19.40;99.90;;;;;;4980082;28;20169;-59
2022/06/22 02:17:36;;;;;;;4.80;3.20;;;19.40;99.90;;;;;;4976924;28;20014;-59
2022/06/22 02:20:32;;;;;;;5.13;3.20;;;19.50;99.90;;;;;;4987723;28;20045;-59
2022/06/22 02:23:36;;;;;;;5.82;3.17;;;19.20;99.90;;;;;;4987600;28;20042;-58
2022/06/22 02:26:15;;;;;;;4.03;3.00;;;19.40;99.90;;;;;;4957443;28;20046;-59
2022/06/22 02:28:42;;;;;;;5.35;3.15;;;19.20;99.90;;;;;;4977153;28;20043;-59
2022/06/22 02:31:09;;;;;;;4.10;3.10;;;19.20;99.90;;;;;;4981010;28;20389;-59
2022/06/22 02:33:37;;;;;;;5.60;3.00;;;19.20;99.90;;;;;;4981102;28;20037;-58
2022/06/22 02:36:04;;;;;;;5.22;3.10;;;19.10;99.90;;;;;;4987914;28;20113;-59
2022/06/22 02:38:30;;;;;;;4.50;3.00;;;19.50;99.90;;;;;;4991536;28;20110;-58
2022/06/22 02:46:35;;;;;;;5.28;3.22;;;18.80;99.90;;;;;;4980506;28;20042;-59
2022/06/22 02:49:06;;;;;;;5.95;3.33;;;18.80;99.90;;;;;;4981331;28;20081;-60
2022/06/22 02:51:39;;;;;;;5.50;3.50;;;19.00;99.90;;;;;;4984826;28;20034;-58
2022/06/22 02:54:11;;;;;;;6.15;3.85;;;19.10;99.90;;;;;;4984738;28;20034;-59
2022/06/22 02:56:40;;;;;;;5.15;3.90;;;19.20;99.90;;;;;;4981590;28;20096;-59
2022/06/22 02:59:09;;;;;;;5.50;3.90;;;18.70;99.90;;;;;;4979816;28;20023;-59
2022/06/22 03:01:37;;;;;;;6.85;3.53;;;18.90;99.90;;;;;;4983437;28;20031;-59
2022/06/22 03:04:11;;;;;;;5.85;3.95;;;19.20;99.90;;;;;;4984683;28;20034;-59
2022/06/22 03:06:42;;;;;;;5.22;3.70;;;18.80;99.90;;;;;;4984623;28;20026;-58
2022/06/22 03:09:08;;;;;;;8.07;4.13;;;18.80;99.90;;;;;;4984727;28;20041;-59
2022/06/22 03:11:38;;;;;;;7.78;4.13;;;18.90;99.90;;;;;;4979958;28;20034;-57
2022/06/22 03:14:17;;;;;;;4.88;4.00;;;18.80;99.90;;;;;;4992810;28;20026;-58
2022/06/22 03:16:47;;;;;;;7.88;4.45;;;19.00;99.90;;;;;;4981140;28;20030;-58
2022/06/22 03:19:17;;;;;;;7.05;4.22;;;18.70;99.90;;;;;;4984247;28;20034;-58
2022/06/22 03:21:43;;;;;;;6.65;4.70;;;18.70;99.90;;;;;;4984299;28;20050;-59
2022/06/22 03:24:44;;;;;;;6.35;4.60;;;18.60;99.90;;;;;;4984160;28;20030;-59
2022/06/22 03:27:20;;;;;;;8.13;4.50;;;18.90;99.90;;;;;;4983837;28;20029;-60
2022/06/22 03:29:53;;;;;;;8.00;5.03;;;18.60;99.90;;;;;;4982379;28;20553;-59
2022/06/22 03:32:34;;;;;;;8.57;4.57;;;18.50;99.90;;;;;;4979497;28;20109;-57
2022/06/22 03:35:06;;;;;;;8.05;4.50;;;18.50;99.90;;;;;;4991824;28;20281;-59
2022/06/22 03:37:47;;;;;;;8.07;4.53;;;18.50;99.90;;;;;;4990749;28;20027;-57
2022/06/22 03:40:19;;;;;;;7.40;4.50;;;18.50;99.90;;;;;;4990336;28;20034;-59
2022/06/22 03:42:51;;;;;;;6.07;4.38;;;18.50;99.90;;;;;;4990071;28;20037;-59
2022/06/22 03:45:23;;;;;;;6.65;4.07;;;18.50;99.90;;;;;;4990331;28;20469;-59
2022/06/22 03:48:08;;;;;;;7.35;4.22;;;18.50;99.90;;;;;;4994815;28;20030;-59
2022/06/22 03:50:50;;;;;;;7.07;4.13;;;18.60;99.90;;;;;;4980368;28;20411;-59
2022/06/22 03:53:43;;;;;;;7.20;4.13;;;18.60;99.90;;;;;;4979059;28;20106;-58
2022/06/22 03:56:14;;;;;;;6.70;3.90;;;18.50;99.90;;;;;;4992247;28;20072;-60
2022/06/22 03:58:42;;;;;;;5.60;3.88;;;18.90;99.90;;;;;;4993691;28;20499;-59
2022/06/22 04:01:10;;;;;;;6.38;3.83;;;18.90;99.90;;;;;;4989750;28;20061;-59
2022/06/22 04:03:36;;;;;;;7.75;3.90;;;18.90;99.90;;;;;;4990125;28;20500;-60
2022/06/22 04:06:04;;;;;;;5.22;4.25;;;18.80;99.90;;;;;;4990179;28;20046;-59
2022/06/22 04:08:39;;;;;;;6.38;4.10;;;18.60;99.90;;;;;;4993871;28;20136;-58
2022/06/22 04:11:14;;;;;;;5.30;4.00;;;18.60;99.90;;;;;;4991412;28;20046;-59
2022/06/22 04:13:44;;;;;;;6.97;4.30;;;18.90;99.90;;;;;;4980040;28;20038;-59
2022/06/22 04:16:22;;;;;;;10.25;4.38;;;19.10;99.90;;;;;;4983093;28;20026;-59
2022/06/22 04:19:05;;;;;;;7.95;4.97;;;18.40;99.90;;;;;;4983306;28;20562;-59
2022/06/22 04:21:40;;;;;;;5.25;4.15;;;18.50;99.90;;;;;;4983366;28;20023;-58
2022/06/22 04:24:17;;;;;;;5.75;4.60;;;18.60;99.90;;;;;;4992348;28;20064;-59
2022/06/22 04:27:09;;;;;;;7.07;4.30;;;18.50;99.90;;;;;;4980739;28;20026;-58
2022/06/22 04:30:03;;;;;;;8.70;5.40;;;18.40;99.90;;;;;;4978681;28;20398;-58
2022/06/22 04:33:04;;;;;;;14.23;6.65;;;17.30;99.90;;;;;;4978815;28;20034;-69
2022/06/22 04:35:43;;;;;;;9.20;5.60;;;16.90;99.90;;;;;;4978642;28;20065;-69
2022/06/22 04:38:11;;;;;;;14.45;6.95;;;16.70;99.90;;;;;;4991955;28;20488;-69
2022/06/22 04:41:04;;;;;;;16.20;7.00;;;16.80;99.90;;;;;;4992052;28;20109;-68
2022/06/22 04:43:32;;;;;;;18.60;6.78;;;16.60;99.90;;;;;;4989048;28;20038;-68
2022/06/22 04:45:58;;;;;;;10.35;6.13;;;16.50;99.90;;;;;;4989322;28;20027;-68
2022/06/22 04:48:28;;;;;;;18.75;6.40;;;;;;;;;;4989560;28;20451;-70
2022/06/22 04:50:58;;;;;;;12.35;7.20;;;16.40;99.90;;;;;;4990376;28;20507;-69
2022/06/22 04:53:38;;;;;;;13.63;7.15;;;16.50;99.90;;;;;;4993141;28;20117;-67
2022/06/22 04:56:11;;;;;;;12.18;6.70;;;16.40;99.90;;;;;;4990654;28;20450;-69
2022/06/22 04:58:57;;;;;;;11.10;7.35;;;16.30;99.90;;;;;;4989646;28;20561;-68
2022/06/22 05:01:30;;;;;;;13.30;7.28;;;16.30;99.90;;;;;;4989477;28;20026;-68
2022/06/22 05:04:04;;;;;;;12.38;7.25;;;16.30;99.90;;;;;;4989020;28;20037;-68
2022/06/22 05:07:00;;;;;;;9.90;7.20;;;16.30;99.90;;;;;;4989737;28;20031;-68
2022/06/22 05:10:00;;;;;;;9.60;5.88;;;16.20;99.90;;;;;;4977626;28;20083;-68
2022/06/22 05:12:29;;;;;;;7.13;5.72;;;16.20;99.90;;;;;;4981479;28;20026;-68
2022/06/22 05:14:57;;;;;;;6.00;5.05;;;16.20;99.90;;;;;;4981536;28;20165;-68
2022/06/22 05:17:35;;;;;;;5.40;4.25;;;16.20;99.90;;;;;;4977676;28;20380;-68
2022/06/22 05:20:10;;;;;;;6.38;4.50;;;16.00;99.90;;;;;;4990030;28;20387;-68
2022/06/22 05:22:36;;;;;;;5.75;4.50;;;16.10;99.90;;;;;;4988757;28;20046;-67
2022/06/22 05:25:05;;;;;;;6.38;5.05;;;16.10;99.90;;;;;;4988851;28;20026;-68
2022/06/22 05:27:56;;;;;;;6.32;5.15;;;16.10;99.90;;;;;;4988501;28;20030;-68
2022/06/22 05:30:22;;;;;;;10.70;5.90;;;16.20;99.90;;;;;;4988507;28;20035;-68
2022/06/22 05:32:54;;;;;;;6.20;5.60;;;16.20;99.90;;;;;;4992958;28;20514;-69
2022/06/22 05:35:31;;;;;;;10.95;6.28;;;16.20;99.90;;;;;;4977204;28;20014;-69
2022/06/22 05:37:59;;;;;;;7.22;5.55;;;16.20;99.90;;;;;;4989523;28;20035;-69
2022/06/22 05:40:28;;;;;;;7.97;6.32;;;16.30;99.90;;;;;;4988737;28;20038;-69
2022/06/22 05:42:55;;;;;;;5.63;4.53;;;16.20;99.90;;;;;;4988521;28;20061;-69
2022/06/22 05:45:24;;;;;;;7.20;5.10;;;16.20;99.90;;;;;;4989991;28;20038;-68
2022/06/22 05:47:52;;;;;;;5.28;4.28;;;16.40;99.90;;;;;;4977455;28;20019;-71
2022/06/22 05:50:37;;;;;;;8.57;5.00;;;16.20;99.90;;;;;;4991375;28;20046;-69
2022/06/22 05:53:12;;;;;;;5.32;4.50;;;16.30;99.90;;;;;;4989251;28;20026;-68
2022/06/22 05:55:56;;;;;;;4.55;3.47;;;16.20;99.90;;;;;;4977680;28;20050;-69
2022/06/22 05:58:49;;;;;;;9.65;3.80;;;16.10;99.90;;;;;;4981432;28;20034;-68
2022/06/22 06:01:26;;;;;;;6.78;4.15;;;16.20;99.90;;;;;;4963036;28;20114;-69
2022/06/22 06:04:30;;;;;;;5.95;3.63;;;16.30;99.90;;;;;;4981237;28;20027;-68
2022/06/22 06:07:20;;;;;;;5.10;3.50;;;16.50;99.90;;;;;;4908673;29;20051;-68
2022/06/22 06:09:47;;;;;;;7.95;3.83;;;16.50;99.90;;;;;;4902107;29;20071;-68
2022/06/22 06:12:19;;;;;;;6.45;4.18;;;16.60;99.90;;;;;;4909052;29;20033;-69
2022/06/22 06:14:50;;;;;;;6.07;4.28;;;16.50;99.90;;;;;;4911199;29;20107;-69
2022/06/22 06:17:28;;;;;;;8.55;3.65;;;16.40;99.90;;;;;;4912054;29;20145;-69
2022/06/22 06:19:56;;;;;;;5.30;3.15;;;16.30;99.90;;;;;;4909949;29;20032;-69
2022/06/22 06:22:23;;;;;;;6.93;2.88;;;16.50;99.90;;;;;;4908939;29;20509;-68
2022/06/22 06:27:46;;;;;;;5.80;2.88;;;16.40;99.90;;;;;;4909076;29;20107;-68
2022/06/22 06:30:45;;;;;;;5.60;2.95;;;;;;;;;;4908763;29;20045;-69
2022/06/22 06:33:32;;;;;;;5.35;2.25;;;16.70;99.90;;;;;;4875268;29;20064;-68
2022/06/22 06:36:17;;;;;;;3.90;2.20;;;17.30;99.90;;;;;;4875174;29;20053;-69
2022/06/22 06:39:00;;;;;;;5.63;2.20;;;22.50;99.90;;;;;;4875519;29;20040;-67
2022/06/22 06:41:45;;;;;;;3.72;2.10;;;20.90;99.90;;;;;;4863996;29;20025;-69
2022/06/22 06:44:18;;;;;;;3.97;1.75;;;21.00;99.90;;;;;;4930168;29;20079;-69
2022/06/22 06:46:51;;;;;;;6.18;2.28;;;19.40;99.90;;;;;;4931384;29;20071;-69
2022/06/22 06:49:24;;;;;;;4.05;2.70;;;18.60;99.90;;;;;;4927690;29;20071;-70
2022/06/22 06:51:59;;;;;;;3.97;2.50;;;18.60;99.90;;;;;;4925096;29;20096;-68
2022/06/22 06:54:41;;;;;;;3.83;2.40;;;18.40;99.90;;;;;;4921098;29;20636;-69
2022/06/22 06:57:14;;;;;;;4.75;2.13;;;18.30;99.90;;;;;;4920907;29;20087;-68
2022/06/22 06:59:40;;;;;;;;;;;18.10;99.90;;;;;;4918837;29;20030;-68
2022/06/22 07:02:22;;;;;;;4.47;2.22;;;18.10;99.90;;;;;;4916245;29;19911;-70
2022/06/22 07:04:48;;;;;;;4.55;2.33;;;18.20;99.90;;;;;;4931203;29;20067;-69
2022/06/22 07:07:13;;;;;;;4.88;2.42;;;18.10;99.90;;;;;;4928005;29;20122;-68
2022/06/22 07:09:40;;;;;;;3.38;2.10;;;18.40;99.90;;;;;;4975103;28;20507;-69
2022/06/22 07:12:12;;;;;;;4.72;2.25;;;19.60;99.90;;;;;;4980650;28;20118;-68
2022/06/22 07:14:41;;;;;;;4.13;1.80;;;26.10;99.90;;;;;;4978100;28;20030;-70
2022/06/22 07:17:11;;;;;;;3.47;1.80;;;27.60;99.90;;;;;;4975943;28;20038;-70
2022/06/22 07:19:41;;;;;;;3.65;1.70;;;28.80;99.90;;;;;;4979104;28;20476;-70
2022/06/22 07:22:32;;;;;;;3.90;2.17;;;30.00;99.90;;;;;;4980887;28;20046;-69
2022/06/22 07:25:07;;;;;;;3.05;1.60;;;;;;;;;;4980493;28;20031;-71
2022/06/22 07:27:55;;;;;;;4.07;1.70;;;31.20;99.90;;;;;;4980047;28;20041;-69
2022/06/22 07:30:55;;;;;;;4.38;1.90;;;32.10;99.60;;;;;;4980426;28;20053;-71
2022/06/22 07:33:40;;;;;;;2.15;1.52;;;32.10;99.90;;;;;;4980562;28;20037;-72
2022/06/22 07:36:16;;;;;;;3.08;1.90;;;;;;;;;;4982561;28;20101;-72
2022/06/22 07:39:31;;;;;;;2.83;1.60;;;30.90;99.90;;;;;;4981494;28;20026;-70
2022/06/22 07:41:59;;;;;;;5.25;1.98;;;28.80;99.90;;;;;;4927292;29;20453;-71
2022/06/22 07:44:30;;;;;;;2.53;1.70;;;28.30;99.90;;;;;;4934732;29;20090;-72
2022/06/22 07:47:08;;;;;;;2.03;1.58;;;28.30;99.90;;;;;;4931539;29;20050;-73
2022/06/22 07:50:05;;;;;;;3.88;2.00;;;27.70;99.90;;;;;;4934421;29;20042;-71
2022/06/22 07:52:59;;;;;;;4.28;2.08;;;28.00;99.90;;;;;;4935177;29;20056;-72
2022/06/22 07:55:49;;;;;;;3.10;2.15;;;26.40;99.90;;;;;;4927252;29;20436;-72
2022/06/22 07:58:37;;;;;;;3.38;2.00;;;26.70;99.90;;;;;;4930343;29;20155;-72
2022/06/22 08:01:08;;;;;;;2.90;2.00;;;26.70;99.90;;;;;;4929762;29;20039;-72
2022/06/22 08:03:35;;;;;;;3.10;1.85;;;26.40;99.90;;;;;;4931421;29;20031;-72
2022/06/22 08:06:08;;;;;;;4.35;2.00;;;25.10;99.90;;;;;;4933760;29;20034;-72
2022/06/22 08:08:37;;;;;;;;;;;26.70;99.90;;;;;;4932083;29;20031;-72
2022/06/22 08:11:24;;;;;;;4.00;1.98;;;30.10;99.90;;;;;;4934177;29;20115;-72
2022/06/22 08:14:06;;;;;;;4.90;1.73;;;33.70;99.90;;;;;;4934055;29;20047;-73
2022/06/22 08:16:34;;;;;;;5.13;1.90;;;;;;;;;;4932011;29;20102;-72
2022/06/22 08:19:01;;;;;;;4.32;1.92;;;33.50;99.90;;;;;;4954532;28;20042;-73
2022/06/22 08:21:28;;;;;;;3.20;1.80;;;31.80;99.90;;;;;;4986533;28;20053;-74
2022/06/22 08:23:57;;;;;;;3.17;1.60;;;;;;;;;;4986939;28;20124;-74
2022/06/22 08:26:28;;;;;;;3.58;1.70;;;;;;;;;;4983843;28;20389;-73
2022/06/22 08:28:54;;;;;;;2.58;1.60;;;;;;;;;;4984909;28;20051;-73
2022/06/22 08:31:20;;;;;;;4.38;1.90;;;33.40;95.80;;;;;;4982899;28;20046;-72
2022/06/22 08:33:57;;;;;;;2.83;1.65;;;32.60;95.60;;;;;;4985614;28;20027;-74
2022/06/22 08:36:42;;;;;;;2.55;1.63;;;29.90;98.50;;;;;;4981085;28;20035;-74
2022/06/22 08:39:17;;;;;;;4.55;1.63;;;33.60;96.00;;;;;;4985652;28;20573;-73
2022/06/22 08:42:04;;;;;;;2.72;1.70;;;32.70;97.40;;;;;;4978343;28;20034;-74
2022/06/22 08:44:51;;;;;;;2.72;1.67;;;31.30;93.40;;;;;;4980578;28;20062;-72
2022/06/22 08:47:38;;;;;;;3.00;1.80;;;33.30;92.40;;;;;;4977899;28;20509;-73
2022/06/22 08:50:26;;;;;;;4.05;1.60;;;30.20;93.60;;;;;;4978648;28;20066;-73
2022/06/22 08:53:25;;;;;;;1.92;1.60;;;34.80;92.40;;;;;;4976955;28;20031;-73
2022/06/22 08:56:10;;;;;;;3.55;1.63;;;;;;;;;;4990566;28;20049;-74
2022/06/22 08:58:37;;;;;;;3.78;1.70;;;;;;;;;;4989453;28;20451;-74
2022/06/22 09:01:03;;;;;;;3.67;1.50;;;;;;;;;;4987994;28;20519;-75
2022/06/22 09:03:35;;;;;;;2.22;1.45;;;;;;;;;;4986243;28;20027;-77
2022/06/22 09:06:01;;;;;;;5.22;1.48;;;29.60;99.90;;;;;;4983157;28;20030;-75
2022/06/22 09:08:27;;;;;;;3.53;1.50;;;;;;;;;;4986541;28;20026;-74
2022/06/22 09:11:16;;;;;;;3.08;1.60;;;27.10;99.90;;;;;;4989480;28;20041;-77
2022/06/22 09:14:07;;;;;;;1.90;1.60;;;28.60;99.70;;;;;;4981133;28;20107;-71
2022/06/22 09:17:03;;;;;;;3.95;1.60;;;32.10;94.60;;;;;;4978558;28;20392;-74
2022/06/22 09:19:47;;;;;;;3.20;1.60;;;32.00;93.80;;;;;;4977181;28;20038;-75
2022/06/22 09:22:15;;;;;;;2.25;1.45;;;33.80;93.30;;;;;;4979212;28;20731;-74
2022/06/22 09:24:53;;;;;;;3.40;1.50;;;32.50;93.90;;;;;;4981324;28;20113;-74
2022/06/22 09:27:47;;;;;;;4.85;1.60;;;32.10;92.50;;;;;;4982562;28;20115;-75
2022/06/22 09:30:35;;;;;;;2.00;1.42;;;34.00;92.80;;;;;;4976183;28;20503;-75
2022/06/22 09:33:26;;;;;;;2.90;1.38;;;31.50;94.60;;;;;;4984709;28;20037;-74
2022/06/22 09:35:51;;;;;;;2.47;1.58;;;31.90;96.10;;;;;;4980663;28;20035;-75
2022/06/22 09:38:38;;;;;;;4.47;1.50;;;33.80;92.70;;;;;;4984456;28;20031;-74
2022/06/22 09:41:26;;;;;;;3.83;1.50;;;33.20;94.30;;;;;;4982672;28;20142;-74
2022/06/22 09:44:00;;;;;;;1.70;1.50;;;33.70;94.30;;;;;;4982447;28;20030;-75
2022/06/22 09:46:55;;;;;;;2.35;1.40;;;33.80;92.60;;;;;;4984560;28;20033;-75
2022/06/22 09:49:50;;;;;;;2.50;1.65;;;33.70;91.60;;;;;;4982167;28;20034;-75
2022/06/22 09:52:45;;;;;;;3.97;1.30;;;32.10;90.00;;;;;;4981377;28;20046;-75
2022/06/22 09:58:27;;;;;;;2.05;1.27;;;35.10;90.30;;;;;;4981093;28;20090;-75
2022/06/22 10:00:52;;;;;;;2.80;1.33;;;34.00;91.80;;;;;;4984476;28;20022;-75
2022/06/22 10:03:59;;;;;;;2.58;1.35;;;34.50;91.80;;;;;;4986266;28;20045;-74
2022/06/22 10:06:31;;;;;;;2.03;1.05;;;37.10;89.80;;;;;;4909877;29;20495;-78
2022/06/22 10:09:05;;;;;;;1.95;1.30;;;35.60;93.50;;;;;;4904167;29;20088;-76
2022/06/22 10:11:59;;;;;;;1.77;1.17;;;34.70;94.60;;;;;;4908274;29;20058;-77
2022/06/22 10:14:34;;;;;;;1.75;1.20;;;35.00;99.20;;;;;;4904173;29;20059;-78
2022/06/22 10:16:59;;;;;;;2.15;1.20;;;34.20;91.90;;;;;;4906186;29;20473;-77
2022/06/22 10:19:56;;;;;;;1.90;1.20;;;29.80;95.50;;;;;;4904651;29;20033;-76
2022/06/22 10:22:43;;;;;;;4.47;1.30;;;30.50;98.80;;;;;;4867556;29;20092;-73
2022/06/22 10:25:23;;;;;;;1.35;1.10;;;31.40;97.50;;;;;;4865980;29;20034;-75
2022/06/22 10:27:57;;;;;;;3.60;1.40;;;;;;;;;;4866848;29;20025;-73
2022/06/22 10:30:43;;;;;;;2.83;1.15;;;33.40;91.30;;;;;;4867965;29;20076;-75
2022/06/22 10:33:47;;;;;;;2.85;1.30;;;33.00;91.20;;;;;;4801918;29;20247;-75
2022/06/22 10:36:49;;;;;;;3.60;1.42;;;33.00;90.70;;;;;;4794172;29;20512;-75
2022/06/22 10:39:33;;;;;;;3.17;1.40;;;33.10;90.40;;;;;;4802037;29;20034;-75
2022/06/22 10:45:35;;;;;;;1.77;1.10;;;32.00;90.10;;;;;;4848973;29;20041;-77
2022/06/22 10:48:18;;;;;;;2.58;1.40;;;32.10;92.00;;;;;;4857266;29;20541;-77
2022/06/22 10:50:44;;;;;;;2.05;1.38;;;32.80;91.30;;;;;;4844548;29;20049;-76
2022/06/22 10:53:47;;;;;;;2.88;1.38;;;33.00;91.90;;;;;;4855966;29;20101;-75
2022/06/22 10:56:31;;;;;;;2.25;1.20;;;32.80;92.00;;;;;;4856281;29;20049;-75
2022/06/22 10:59:15;;;;;;;;;;;34.10;91.40;;;;;;4870964;29;20040;-75
2022/06/22 11:02:01;;;;;;;2.75;1.30;;;31.30;89.70;;;;;;4898723;29;20039;-75
2022/06/22 11:04:45;;;;;;;2.13;1.40;;;31.00;91.80;;;;;;4901943;29;20049;-74
2022/06/22 11:07:29;;;;;;;;;;;32.40;91.20;;;;;;4902448;29;20084;-72
2022/06/22 11:10:03;;;;;;;1.75;1.23;;;31.70;91.80;;;;;;4934338;28;19920;-73
2022/06/22 11:12:32;;;;;;;3.85;1.50;;;31.90;91.40;;;;;;4990824;28;20034;-70
2022/06/22 11:15:23;;;;;;;4.15;1.80;;;31.70;91.20;;;;;;4984621;28;20089;-71
2022/06/22 11:18:07;;;;;;;3.15;1.75;;;31.60;92.80;;;;;;4980052;28;20018;-72
2022/06/22 11:20:51;;;;;;;3.95;2.22;;;31.50;92.00;;;;;;4980133;28;20033;-73
2022/06/22 11:23:35;;;;;;;3.63;2.60;;;31.50;93.50;;;;;;4993941;28;20022;-73
2022/06/22 11:32:53;;;;;;;5.47;2.58;;;31.40;96.20;;;;;;4898832;29;20058;-73
2022/06/22 11:35:40;;;;;;;4.03;2.45;;;31.20;96.00;;;;;;4897712;29;24724;-73
2022/06/22 11:38:12;;;;;;;5.15;2.80;;;30.40;99.00;;;;;;4897443;29;20033;-73
2022/06/22 11:40:37;;;;;;;6.85;3.08;;;31.00;99.70;;;;;;4897029;29;20044;-73
2022/06/22 11:43:03;;;;;;;4.63;2.80;;;30.10;94.80;;;;;;4898355;29;20040;-73
2022/06/22 11:45:54;;;;;;;4.97;2.80;;;29.90;97.00;;;;;;4898182;29;20115;-72
2022/06/22 11:48:28;;;;;;;8.02;3.10;;;30.10;96.40;;;;;;4898246;29;20032;-74
2022/06/22 11:51:02;;;;;;;5.65;3.13;;;29.50;95.50;;;;;;4898149;29;20040;-74
2022/06/22 11:53:49;;;;;;;6.43;2.88;;;29.50;95.70;;;;;;4883653;29;20522;-73
2022/06/22 11:56:30;;;;;;;5.55;2.88;;;29.90;95.00;;;;;;4896243;29;20119;-73
2022/06/22 11:59:09;;;;;;;4.15;2.45;;;30.10;95.20;;;;;;4893354;29;20622;-73
2022/06/22 12:01:51;;;;;;;4.45;2.65;;;29.10;95.40;;;;;;4897744;29;20036;-73
2022/06/22 12:04:54;;;;;;;5.22;2.70;;;28.70;95.50;;;;;;4897677;29;20040;-74
2022/06/22 12:07:23;;;;;;;3.95;2.58;;;28.90;95.50;;;;;;4897753;29;20451;-74
2022/06/22 12:10:14;;;;;;;5.13;2.50;;;29.30;95.00;;;;;;4977637;28;20518;-73
2022/06/22 12:13:00;;;;;;;4.57;2.38;;;29.70;95.40;;;;;;4990391;28;20023;-74
2022/06/22 12:15:37;;;;;;;7.15;2.20;;;29.00;95.10;;;;;;4991284;28;20106;-73
2022/06/22 12:18:34;;;;;;;4.40;2.30;;;28.90;94.50;;;;;;4979124;28;20027;-73
2022/06/22 12:21:08;;;;;;;4.57;2.22;;;28.60;94.90;;;;;;4989760;28;20070;-74
2022/06/22 12:23:52;;;;;;;4.72;2.30;;;28.70;95.00;;;;;;4978334;28;20087;-74
2022/06/22 12:26:43;;;;;;;3.70;2.30;;;28.30;94.70;;;;;;4992658;28;20027;-73
2022/06/22 12:29:24;;;;;;;7.53;2.70;;;29.30;94.90;;;;;;4991236;28;20116;-73
2022/06/22 12:31:58;;;;;;;4.18;2.20;;;29.20;94.80;;;;;;4979464;28;20038;-73
2022/06/22 12:34:30;;;;;;;3.65;2.22;;;29.50;93.60;;;;;;4983128;28;20022;-74
2022/06/22 12:37:08;;;;;;;4.18;1.95;;;30.00;94.70;;;;;;4982692;28;20033;-73
2022/06/22 12:39:42;;;;;;;4.07;2.20;;;29.60;93.70;;;;;;4982736;28;20027;-72
2022/06/22 12:42:16;;;;;;;4.65;1.80;;;29.90;94.20;;;;;;4982451;28;20110;-73
2022/06/22 12:45:01;;;;;;;3.40;1.70;;;29.10;92.90;;;;;;4980174;28;20033;-71
2022/06/22 12:47:55;;;;;;;3.50;1.70;;;28.50;93.40;;;;;;4977621;28;20593;-72
2022/06/22 12:50:54;;;;;;;3.33;2.17;;;28.80;93.40;;;;;;4993024;28;20084;-68
2022/06/22 12:53:25;;;;;;;3.95;1.70;;;28.30;94.20;;;;;;4992860;28;20727;-68
2022/06/22 12:56:10;;;;;;;3.40;1.60;;;28.40;93.40;;;;;;4979312;28;20411;-69
2022/06/22 12:59:02;;;;;;;2.30;1.60;;;28.30;92.30;;;;;;4989243;28;20034;-69
2022/06/22 13:01:28;;;;;;;6.03;1.45;;;27.80;93.70;;;;;;4982030;28;20110;-69
2022/06/22 13:04:09;;;;;;;5.47;1.45;;;27.80;93.30;;;;;;4982772;28;20057;-69
2022/06/22 13:06:38;;;;;;;4.05;1.50;;;28.40;93.60;;;;;;4982036;28;20046;-68
2022/06/22 13:09:05;;;;;;;3.25;1.50;;;27.60;94.50;;;;;;4982371;28;20028;-69
2022/06/22 13:11:31;;;;;;;5.00;1.70;;;27.40;94.50;;;;;;4978125;28;20038;-70
2022/06/22 13:14:12;;;;;;;5.20;2.00;;;27.60;94.20;;;;;;4978552;28;20027;-69
2022/06/22 13:17:15;;;;;;;3.70;1.65;;;26.20;94.90;;;;;;4989369;28;20483;-69
2022/06/22 13:20:08;;;;;;;3.40;1.50;;;26.50;94.90;;;;;;4978432;28;20047;-69
2022/06/22 13:23:00;;;;;;;4.70;1.48;;;27.30;95.90;;;;;;4988057;28;20507;-67
2022/06/22 13:25:35;;;;;;;3.38;1.20;;;27.70;96.70;;;;;;4988755;28;20499;-68
2022/06/22 13:28:28;;;;;;;2.90;1.40;;;27.80;95.80;;;;;;4988128;28;20014;-68
2022/06/22 13:31:01;;;;;;;4.78;1.60;;;28.00;96.20;;;;;;4988697;28;20121;-68
2022/06/22 13:33:50;;;;;;;4.55;1.48;;;27.80;95.70;;;;;;4989059;28;20058;-69
2022/06/22 13:36:33;;;;;;;4.07;1.50;;;27.90;95.70;;;;;;4978320;28;20035;-69
2022/06/22 13:38:58;;;;;;;2.42;1.38;;;28.50;95.90;;;;;;4988529;28;20055;-69
2022/06/22 13:41:59;;;;;;;2.15;1.48;;;28.10;95.70;;;;;;4992267;28;20058;-67
2022/06/22 13:44:50;;;;;;;2.78;1.50;;;28.10;95.70;;;;;;4976769;28;20042;-67
2022/06/22 13:47:19;;;;;;;3.42;1.67;;;27.70;96.60;;;;;;4990931;28;20030;-67
2022/06/22 13:50:23;;;;;;;4.43;1.70;;;27.50;96.80;;;;;;4988807;28;20034;-67
2022/06/22 13:52:49;;;;;;;1.70;1.20;;;27.50;96.70;;;;;;4977665;28;20562;-66
2022/06/22 13:55:34;;;;;;;4.05;1.25;;;27.40;95.50;;;;;;4981632;28;20080;-67
2022/06/22 13:58:25;;;;;;;4.72;1.17;;;27.10;98.00;;;;;;4981259;28;20045;-68
2022/06/22 14:01:06;;;;;;;2.05;1.50;;;27.40;98.00;;;;;;4981270;28;20039;-68
2022/06/22 14:03:38;;;;;;;4.68;1.70;;;27.10;97.60;;;;;;4981291;28;20085;-68
2022/06/22 14:06:19;;;;;;;2.75;1.50;;;27.00;99.10;;;;;;4981160;28;20034;-68
2022/06/22 14:08:57;;;;;;;4.15;1.45;;;27.60;99.20;;;;;;4979086;28;20026;-68
2022/06/22 14:11:32;;;;;;;4.18;1.38;;;27.20;99.50;;;;;;4977041;28;20046;-68
2022/06/22 14:14:24;;;;;;;3.08;1.17;;;26.70;99.60;;;;;;4988846;28;20030;-68